Time;durP1;ratioP1;P1;durP2;ratioP2;P2;SDS_P1;SDS_P2;PMS_P1;PMS_P2;Temp;Humidity;BMP_temperature;BMP_pressure;BME280_temperature;BME280_humidity;BME280_pressure;Samples;Min_cycle;Max_cycle;Signal;HPM_P1;HPM_P2
2020/12/08 00:02:16;;;;;;;43.45;23.75;;;5.90;99.90;;;;;;5064513;28;20414;-47
2020/12/08 00:04:42;;;;;;;42.33;22.58;;;5.90;99.90;;;;;;5063159;28;20382;-49
2020/12/08 00:07:09;;;;;;;42.22;23.70;;;5.90;99.90;;;;;;5061809;28;20400;-48
2020/12/08 00:09:36;;;;;;;41.80;22.98;;;5.90;99.90;;;;;;5057763;28;20388;-48
2020/12/08 00:12:03;;;;;;;40.95;23.40;;;5.90;99.90;;;;;;5063892;28;20394;-48
2020/12/08 00:14:29;;;;;;;43.63;23.77;;;6.00;99.90;;;;;;5058726;28;20729;-48
2020/12/08 00:16:56;;;;;;;42.58;23.25;;;6.00;99.90;;;;;;5062657;28;20400;-48
2020/12/08 00:19:22;;;;;;;42.33;23.75;;;6.00;99.90;;;;;;5061179;28;20390;-49
2020/12/08 00:21:48;;;;;;;40.03;22.75;;;6.00;99.90;;;;;;5064688;28;20421;-47
2020/12/08 00:24:14;;;;;;;44.65;23.27;;;6.00;99.90;;;;;;5059602;28;20388;-50
2020/12/08 00:26:41;;;;;;;42.17;23.73;;;6.00;99.90;;;;;;5064722;28;20401;-49
2020/12/08 00:29:07;;;;;;;42.95;22.55;;;6.00;99.90;;;;;;5060975;28;20384;-48
2020/12/08 00:31:33;;;;;;;42.53;24.23;;;6.00;99.90;;;;;;5063460;28;20886;-48
2020/12/08 00:33:59;;;;;;;43.50;23.13;;;6.00;99.90;;;;;;5063453;28;20395;-47
2020/12/08 00:36:26;;;;;;;41.40;23.52;;;6.00;99.90;;;;;;5062784;28;20391;-47
2020/12/08 00:38:52;;;;;;;39.50;23.55;;;6.00;99.90;;;;;;5057567;28;20388;-47
2020/12/08 00:41:19;;;;;;;43.13;24.00;;;6.00;99.90;;;;;;5058142;28;20410;-49
2020/12/08 00:43:45;;;;;;;44.67;23.60;;;6.00;99.90;;;;;;5060429;28;20485;-47
2020/12/08 00:46:15;;;;;;;44.03;23.95;;;6.00;99.90;;;;;;5063495;28;20409;-49
2020/12/08 00:48:41;;;;;;;45.70;23.98;;;6.00;99.90;;;;;;5066290;28;20413;-47
2020/12/08 00:51:08;;;;;;;46.78;24.10;;;6.00;99.90;;;;;;5064445;28;20719;-51
2020/12/08 00:53:34;;;;;;;47.10;24.38;;;6.00;99.90;;;;;;5058840;28;20392;-47
2020/12/08 00:56:00;;;;;;;45.78;25.00;;;6.00;99.90;;;;;;5061137;28;20404;-48
2020/12/08 00:58:29;;;;;;;47.72;26.15;;;6.00;99.90;;;;;;5063501;28;20389;-48
2020/12/08 01:00:55;;;;;;;48.08;24.65;;;6.00;99.90;;;;;;5062083;28;20419;-47
2020/12/08 01:03:21;;;;;;;49.90;24.58;;;6.00;99.90;;;;;;5064682;28;20409;-48
2020/12/08 01:05:47;;;;;;;49.45;25.73;;;6.00;99.90;;;;;;5062668;28;20405;-48
2020/12/08 01:08:14;;;;;;;50.70;26.00;;;6.00;99.90;;;;;;5061552;28;20771;-51
2020/12/08 01:10:40;;;;;;;49.92;25.33;;;6.00;99.90;;;;;;5061764;28;20402;-48
2020/12/08 01:13:06;;;;;;;49.42;25.45;;;6.00;99.90;;;;;;5059282;28;20391;-48
2020/12/08 01:15:32;;;;;;;47.90;25.35;;;6.00;99.90;;;;;;5060275;28;20386;-50
2020/12/08 01:17:58;;;;;;;50.03;25.63;;;6.00;99.90;;;;;;5057277;28;20406;-48
2020/12/08 01:20:25;;;;;;;52.95;26.30;;;5.90;99.90;;;;;;5058828;28;20466;-47
2020/12/08 01:22:51;;;;;;;47.78;25.65;;;5.90;99.90;;;;;;5060839;28;20429;-49
2020/12/08 01:25:18;;;;;;;48.65;26.10;;;5.90;99.90;;;;;;5059345;28;20397;-47
2020/12/08 01:27:44;;;;;;;48.78;25.48;;;5.90;99.90;;;;;;5063332;28;20401;-48
2020/12/08 01:30:10;;;;;;;48.35;25.58;;;5.90;99.90;;;;;;5064840;28;20386;-48
2020/12/08 01:32:36;;;;;;;47.60;25.83;;;5.90;99.90;;;;;;5059304;28;20394;-50
2020/12/08 01:35:03;;;;;;;49.03;25.83;;;5.80;99.90;;;;;;5063845;28;20390;-47
2020/12/08 01:37:29;;;;;;;43.25;24.50;;;5.80;99.90;;;;;;5061473;28;20870;-47
2020/12/08 01:39:55;;;;;;;47.45;24.88;;;5.80;99.90;;;;;;5066166;28;20402;-48
2020/12/08 01:42:21;;;;;;;42.00;23.53;;;5.80;99.90;;;;;;5057692;28;20902;-47
2020/12/08 01:44:48;;;;;;;46.55;25.13;;;5.80;99.90;;;;;;5061888;28;20393;-48
2020/12/08 01:47:17;;;;;;;47.10;24.95;;;5.80;99.90;;;;;;5061975;28;20886;-48
2020/12/08 01:49:47;;;;;;;45.83;24.83;;;5.80;99.90;;;;;;5069535;28;20402;-47
2020/12/08 01:52:16;;;;;;;51.58;26.02;;;5.80;99.90;;;;;;5061812;28;20712;-49
2020/12/08 01:54:43;;;;;;;49.38;26.10;;;5.80;99.90;;;;;;5060180;28;20399;-48
2020/12/08 01:57:09;;;;;;;47.25;24.55;;;5.80;99.90;;;;;;5062119;28;20867;-48
2020/12/08 01:59:35;;;;;;;45.05;24.52;;;5.80;99.90;;;;;;5069280;28;20497;-48
2020/12/08 02:02:02;;;;;;;46.47;24.65;;;5.80;99.90;;;;;;5064526;28;20406;-48
2020/12/08 02:04:29;;;;;;;46.30;24.63;;;5.80;99.90;;;;;;5065350;28;20503;-49
2020/12/08 02:06:55;;;;;;;45.15;24.52;;;5.80;99.90;;;;;;5057183;28;20406;-47
2020/12/08 02:09:21;;;;;;;45.17;24.75;;;5.80;99.90;;;;;;5061122;28;20403;-48
2020/12/08 02:11:48;;;;;;;45.45;24.35;;;5.80;99.90;;;;;;5058730;28;20406;-50
2020/12/08 02:14:14;;;;;;;45.03;24.45;;;5.80;99.90;;;;;;5066031;28;20390;-48
2020/12/08 02:16:40;;;;;;;47.97;24.73;;;5.80;99.90;;;;;;5058236;28;20390;-48
2020/12/08 02:19:07;;;;;;;50.53;26.13;;;5.80;99.90;;;;;;5062444;28;20414;-49
2020/12/08 02:21:33;;;;;;;47.30;25.55;;;5.80;99.90;;;;;;5059309;28;20402;-48
2020/12/08 02:24:00;;;;;;;45.05;24.60;;;5.80;99.90;;;;;;5065095;28;20876;-47
2020/12/08 02:26:29;;;;;;;50.63;26.13;;;5.80;99.90;;;;;;5065064;28;20394;-48
2020/12/08 02:28:55;;;;;;;49.22;25.52;;;5.80;99.90;;;;;;5057248;28;20393;-48
2020/12/08 02:31:22;;;;;;;51.88;26.83;;;5.80;99.90;;;;;;5061541;28;20893;-48
2020/12/08 02:33:48;;;;;;;51.45;26.75;;;5.80;99.90;;;;;;5065321;28;20759;-48
2020/12/08 02:36:14;;;;;;;46.95;25.58;;;5.80;99.90;;;;;;5057253;28;20402;-48
2020/12/08 02:38:40;;;;;;;51.28;26.63;;;5.80;99.90;;;;;;5066960;28;20378;-47
2020/12/08 02:41:06;;;;;;;50.58;27.17;;;5.70;99.90;;;;;;5059289;28;20386;-48
2020/12/08 02:43:32;;;;;;;52.20;26.77;;;5.70;99.90;;;;;;5062069;28;20424;-48
2020/12/08 02:45:59;;;;;;;51.50;25.97;;;5.70;99.90;;;;;;5059369;28;20889;-48
2020/12/08 02:48:25;;;;;;;50.97;25.70;;;5.70;99.90;;;;;;5052936;28;20404;-48
2020/12/08 02:50:51;;;;;;;51.53;26.83;;;5.70;99.90;;;;;;5060157;28;20386;-50
2020/12/08 02:53:18;;;;;;;54.33;27.15;;;5.70;99.90;;;;;;5061040;28;20390;-48
2020/12/08 02:55:47;;;;;;;55.72;27.50;;;5.70;99.90;;;;;;5066764;28;20382;-48
2020/12/08 02:58:14;;;;;;;53.42;25.85;;;5.70;99.90;;;;;;5057113;28;20388;-48
2020/12/08 03:00:40;;;;;;;52.53;25.98;;;5.70;99.90;;;;;;5056964;28;20399;-48
2020/12/08 03:03:06;;;;;;;48.95;25.73;;;5.70;99.90;;;;;;5070435;28;20409;-48
2020/12/08 03:05:32;;;;;;;53.67;26.00;;;5.70;99.90;;;;;;5067074;28;20399;-48
2020/12/08 03:07:58;;;;;;;48.25;25.15;;;5.70;99.90;;;;;;5066514;28;20390;-48
2020/12/08 03:10:28;;;;;;;51.00;25.73;;;5.70;99.90;;;;;;5062313;28;20406;-48
2020/12/08 03:12:54;;;;;;;51.28;25.02;;;5.70;99.90;;;;;;5064993;28;20398;-48
2020/12/08 03:15:20;;;;;;;48.38;25.02;;;5.70;99.90;;;;;;5061639;28;20388;-50
2020/12/08 03:17:46;;;;;;;46.42;23.92;;;5.70;99.90;;;;;;5063832;28;20890;-48
2020/12/08 03:20:12;;;;;;;42.75;22.67;;;5.70;99.90;;;;;;5072450;28;20394;-48
2020/12/08 03:22:40;;;;;;;46.00;24.15;;;5.70;99.90;;;;;;5059279;28;20911;-48
2020/12/08 03:25:06;;;;;;;51.55;25.98;;;5.70;99.90;;;;;;5063198;28;20394;-48
2020/12/08 03:27:32;;;;;;;49.50;25.05;;;5.70;99.90;;;;;;5064427;28;20855;-48
2020/12/08 03:29:58;;;;;;;45.00;24.10;;;5.70;99.90;;;;;;5063354;28;20384;-47
2020/12/08 03:32:24;;;;;;;45.15;24.48;;;5.70;99.90;;;;;;5061678;28;20394;-48
2020/12/08 03:34:50;;;;;;;47.67;24.00;;;5.70;99.90;;;;;;5071422;28;20392;-48
2020/12/08 03:37:17;;;;;;;45.53;23.90;;;5.70;99.90;;;;;;5066952;28;20386;-48
2020/12/08 03:39:43;;;;;;;44.85;23.33;;;5.70;99.90;;;;;;5065703;28;20884;-47
2020/12/08 03:42:09;;;;;;;45.05;23.20;;;5.70;99.90;;;;;;5061044;28;20414;-48
2020/12/08 03:44:35;;;;;;;43.03;22.73;;;5.70;99.90;;;;;;5065223;28;20386;-48
2020/12/08 03:47:03;;;;;;;45.80;23.88;;;5.70;99.90;;;;;;5061457;28;20401;-48
2020/12/08 03:49:29;;;;;;;43.73;23.33;;;5.70;99.90;;;;;;5058996;28;20396;-48
2020/12/08 03:51:58;;;;;;;44.78;23.27;;;5.70;99.90;;;;;;5064340;28;20390;-50
2020/12/08 03:54:24;;;;;;;48.55;25.08;;;5.70;99.90;;;;;;5063439;28;20770;-48
2020/12/08 03:56:51;;;;;;;50.95;25.33;;;5.70;99.90;;;;;;5071132;28;20475;-47
2020/12/08 03:59:17;;;;;;;47.50;23.93;;;5.70;99.90;;;;;;5069275;28;20401;-48
2020/12/08 04:01:47;;;;;;;46.75;24.58;;;5.70;99.90;;;;;;5067089;28;20442;-47
2020/12/08 04:04:14;;;;;;;47.55;24.35;;;5.70;99.90;;;;;;5070202;28;20394;-48
2020/12/08 04:06:40;;;;;;;50.45;25.30;;;5.70;99.90;;;;;;5063668;28;20398;-48
2020/12/08 04:09:07;;;;;;;48.72;24.15;;;5.70;99.90;;;;;;5065923;28;20383;-49
2020/12/08 04:11:33;;;;;;;46.60;23.90;;;5.80;99.90;;;;;;5063349;28;20398;-48
2020/12/08 04:14:00;;;;;;;54.60;25.35;;;5.70;99.90;;;;;;5059823;28;20389;-49
2020/12/08 04:16:27;;;;;;;48.42;24.65;;;5.70;99.90;;;;;;5056913;28;20391;-48
2020/12/08 04:18:54;;;;;;;44.93;24.13;;;5.70;99.90;;;;;;5061663;28;20765;-52
2020/12/08 04:21:24;;;;;;;48.88;24.27;;;5.70;99.90;;;;;;5063681;28;20747;-48
2020/12/08 04:24:02;;;;;;;46.47;23.90;;;5.70;99.90;;;;;;5057867;28;20399;-48
2020/12/08 04:26:29;;;;;;;47.10;23.07;;;5.70;99.90;;;;;;5060213;28;20762;-48
2020/12/08 04:28:55;;;;;;;44.15;22.55;;;5.80;99.90;;;;;;5066403;28;20411;-48
2020/12/08 04:31:21;;;;;;;44.70;22.58;;;5.80;99.90;;;;;;5064228;28;20399;-48
2020/12/08 04:33:48;;;;;;;44.97;22.80;;;5.80;99.90;;;;;;5064048;28;20410;-48
2020/12/08 04:36:14;;;;;;;45.17;22.15;;;5.70;99.90;;;;;;5065403;28;20395;-48
2020/12/08 04:38:40;;;;;;;40.97;22.65;;;5.80;99.90;;;;;;5065614;28;20395;-48
2020/12/08 04:41:07;;;;;;;42.42;21.55;;;5.70;99.90;;;;;;5062493;28;20435;-48
2020/12/08 04:43:34;;;;;;;42.33;22.48;;;5.80;99.90;;;;;;5061616;28;20409;-48
2020/12/08 04:46:00;;;;;;;42.42;22.15;;;5.80;99.90;;;;;;5054934;28;20387;-59
2020/12/08 04:48:27;;;;;;;39.00;20.60;;;5.80;99.90;;;;;;5054739;28;20490;-49
2020/12/08 04:50:53;;;;;;;39.80;21.35;;;5.80;99.90;;;;;;5062283;28;20374;-49
2020/12/08 04:53:21;;;;;;;40.73;21.27;;;5.80;99.90;;;;;;5062956;28;20384;-48
2020/12/08 04:55:47;;;;;;;42.92;21.83;;;5.80;99.90;;;;;;5063315;28;20374;-47
2020/12/08 04:58:13;;;;;;;44.13;21.70;;;5.90;99.90;;;;;;5064623;28;20387;-48
2020/12/08 05:00:40;;;;;;;42.63;21.60;;;5.80;99.90;;;;;;5059218;28;20390;-48
2020/12/08 05:03:07;;;;;;;41.42;21.75;;;5.90;99.90;;;;;;5067048;28;20417;-49
2020/12/08 05:05:40;;;;;;;40.60;21.15;;;5.90;99.90;;;;;;5070271;28;20851;-48
2020/12/08 05:08:13;;;;;;;41.63;21.65;;;5.80;99.90;;;;;;5065029;28;20389;-48
2020/12/08 05:10:39;;;;;;;40.45;21.02;;;5.90;99.90;;;;;;5070419;28;20406;-48
2020/12/08 05:13:21;;;;;;;43.55;21.40;;;5.90;99.90;;;;;;5051232;28;20374;-48
2020/12/08 05:16:03;;;;;;;39.13;21.90;;;5.90;99.90;;;;;;5051998;28;20375;-47
2020/12/08 05:18:33;;;;;;;43.55;22.30;;;5.90;99.90;;;;;;5067982;28;20413;-48
2020/12/08 05:21:12;;;;;;;38.65;21.48;;;5.90;99.90;;;;;;5069467;28;20378;-48
2020/12/08 05:23:44;;;;;;;41.80;22.27;;;5.90;99.90;;;;;;5070719;28;20402;-48
2020/12/08 05:26:15;;;;;;;44.37;22.27;;;5.90;99.90;;;;;;5070932;28;20375;-48
2020/12/08 05:28:42;;;;;;;46.25;22.65;;;5.90;99.90;;;;;;5070754;28;20386;-48
2020/12/08 05:31:09;;;;;;;47.25;23.05;;;5.80;99.90;;;;;;5070586;28;20878;-47
2020/12/08 05:33:39;;;;;;;42.63;22.07;;;5.90;99.90;;;;;;5069441;28;20409;-48
2020/12/08 05:36:06;;;;;;;42.42;22.15;;;5.80;99.90;;;;;;5069665;28;20730;-48
2020/12/08 05:38:36;;;;;;;47.67;23.50;;;5.90;99.90;;;;;;5052848;28;20388;-48
2020/12/08 05:41:03;;;;;;;46.88;23.25;;;5.90;99.90;;;;;;5052650;28;20385;-48
2020/12/08 05:43:39;;;;;;;47.83;23.38;;;5.90;99.90;;;;;;5070506;28;20929;-48
2020/12/08 05:46:06;;;;;;;45.30;23.60;;;5.90;99.90;;;;;;5068873;28;20440;-49
2020/12/08 05:48:32;;;;;;;51.15;23.08;;;5.90;99.90;;;;;;5070638;28;20862;-48
2020/12/08 05:51:05;;;;;;;52.90;25.00;;;5.90;99.90;;;;;;5052349;28;20374;-48
2020/12/08 05:53:31;;;;;;;54.28;24.75;;;5.90;99.90;;;;;;5071254;28;20735;-48
2020/12/08 05:56:04;;;;;;;47.92;23.73;;;5.80;99.90;;;;;;5070043;28;20385;-50
2020/12/08 05:58:31;;;;;;;48.60;23.27;;;5.90;99.90;;;;;;5067106;28;20740;-49
2020/12/08 06:01:03;;;;;;;45.55;23.00;;;5.90;99.90;;;;;;5069352;28;20381;-51
2020/12/08 06:03:30;;;;;;;50.88;24.35;;;5.90;99.90;;;;;;5067602;28;20497;-48
2020/12/08 06:06:08;;;;;;;50.30;24.77;;;5.90;99.90;;;;;;5070653;28;20397;-48
2020/12/08 06:08:45;;;;;;;51.10;25.70;;;5.90;99.90;;;;;;5052350;28;20733;-48
2020/12/08 06:11:11;;;;;;;49.83;24.73;;;5.90;99.90;;;;;;5058911;28;20411;-47
2020/12/08 06:13:40;;;;;;;53.33;24.90;;;5.90;99.90;;;;;;5064347;28;20392;-48
2020/12/08 06:16:20;;;;;;;53.97;24.65;;;5.90;99.90;;;;;;5058823;28;20387;-47
2020/12/08 06:18:47;;;;;;;46.53;23.93;;;5.90;99.90;;;;;;5068439;28;20410;-52
2020/12/08 06:21:40;;;;;;;49.08;24.05;;;5.90;99.90;;;;;;5050445;28;20384;-49
2020/12/08 06:24:06;;;;;;;54.80;24.10;;;5.90;99.90;;;;;;5050393;28;20400;-49
2020/12/08 06:26:34;;;;;;;47.47;23.93;;;5.90;99.90;;;;;;5069149;28;20386;-47
2020/12/08 06:29:10;;;;;;;47.07;23.53;;;5.90;99.90;;;;;;5070336;28;20386;-49
2020/12/08 06:31:46;;;;;;;48.90;24.42;;;5.90;99.90;;;;;;5072786;28;20386;-48
2020/12/08 06:34:23;;;;;;;56.75;24.80;;;5.90;99.90;;;;;;5071772;28;20862;-47
2020/12/08 06:36:52;;;;;;;46.22;23.40;;;5.90;99.90;;;;;;5070477;28;20446;-47
2020/12/08 06:39:18;;;;;;;41.33;22.30;;;5.90;99.90;;;;;;5053874;28;20394;-48
2020/12/08 06:41:45;;;;;;;45.20;23.25;;;6.00;99.90;;;;;;5061896;28;20401;-48
2020/12/08 06:44:17;;;;;;;45.58;22.95;;;5.90;99.90;;;;;;5067729;28;20409;-48
2020/12/08 06:46:57;;;;;;;44.30;23.17;;;5.90;99.90;;;;;;5054996;28;20394;-47
2020/12/08 06:49:23;;;;;;;44.50;23.13;;;5.90;99.90;;;;;;5072636;28;20406;-47
2020/12/08 06:51:56;;;;;;;43.63;22.35;;;5.90;99.90;;;;;;5071145;28;20391;-48
2020/12/08 06:54:22;;;;;;;43.37;22.13;;;5.90;99.90;;;;;;5073069;28;20878;-47
2020/12/08 06:56:48;;;;;;;43.15;21.52;;;5.90;99.90;;;;;;5072853;28;20394;-48
2020/12/08 06:59:27;;;;;;;40.97;21.57;;;5.90;99.90;;;;;;5070945;28;20897;-47
2020/12/08 07:01:53;;;;;;;37.88;20.55;;;5.90;99.90;;;;;;5072446;28;20504;-48
2020/12/08 07:04:19;;;;;;;42.28;21.45;;;5.90;99.90;;;;;;5071282;28;20742;-48
2020/12/08 07:06:45;;;;;;;40.83;21.88;;;5.90;99.90;;;;;;5072148;28;20402;-47
2020/12/08 07:09:12;;;;;;;39.08;19.55;;;5.90;99.90;;;;;;5070707;28;20743;-49
2020/12/08 07:11:38;;;;;;;36.10;20.00;;;5.90;99.90;;;;;;5070738;28;20728;-47
2020/12/08 07:14:07;;;;;;;37.10;19.75;;;5.90;99.90;;;;;;5071304;28;20390;-49
2020/12/08 07:16:34;;;;;;;40.05;19.83;;;5.80;99.90;;;;;;5073072;28;20394;-52
2020/12/08 07:19:05;;;;;;;35.27;18.67;;;5.80;99.90;;;;;;5073390;28;20428;-50
2020/12/08 07:21:31;;;;;;;36.05;17.33;;;5.90;99.90;;;;;;5064617;28;20389;-47
2020/12/08 07:23:57;;;;;;;37.63;18.65;;;5.90;99.90;;;;;;5072584;28;20402;-47
2020/12/08 07:26:24;;;;;;;35.90;18.23;;;5.90;99.90;;;;;;5072718;28;20382;-49
2020/12/08 07:28:54;;;;;;;36.75;18.50;;;5.90;99.90;;;;;;5071857;28;20405;-49
2020/12/08 07:31:25;;;;;;;33.53;18.00;;;5.90;99.90;;;;;;5071522;28;20750;-48
2020/12/08 07:33:52;;;;;;;34.53;18.45;;;5.90;99.90;;;;;;5068527;28;20390;-48
2020/12/08 07:36:24;;;;;;;31.57;16.50;;;5.90;99.90;;;;;;5072288;28;20389;-47
2020/12/08 07:38:52;;;;;;;33.03;18.27;;;5.90;99.90;;;;;;5070469;28;20381;-49
2020/12/08 07:41:23;;;;;;;31.42;17.30;;;5.90;99.90;;;;;;5070960;28;20910;-47
2020/12/08 07:43:49;;;;;;;32.40;17.65;;;5.90;99.90;;;;;;5068811;28;20412;-49
2020/12/08 07:46:24;;;;;;;30.80;16.63;;;5.90;99.90;;;;;;5069084;28;20684;-48
2020/12/08 07:49:09;;;;;;;35.03;17.00;;;5.90;99.90;;;;;;5072077;28;20870;-47
2020/12/08 07:51:36;;;;;;;29.17;16.23;;;5.90;99.90;;;;;;5070634;28;20378;-47
2020/12/08 07:54:06;;;;;;;31.90;16.17;;;5.90;99.90;;;;;;5071854;28;20700;-48
2020/12/08 07:56:36;;;;;;;30.67;16.40;;;5.90;99.90;;;;;;5072364;28;20382;-47
2020/12/08 07:59:05;;;;;;;30.85;15.38;;;5.90;99.90;;;;;;5069532;28;20414;-49
2020/12/08 08:01:42;;;;;;;28.67;15.63;;;5.90;99.90;;;;;;5063720;28;20390;-48
2020/12/08 08:04:08;;;;;;;29.58;15.48;;;5.90;99.90;;;;;;5067838;28;20421;-49
2020/12/08 08:06:35;;;;;;;28.42;15.70;;;5.90;99.90;;;;;;5070362;28;20389;-48
2020/12/08 08:09:05;;;;;;;26.23;14.88;;;5.90;99.90;;;;;;5069352;28;20378;-47
2020/12/08 08:11:32;;;;;;;27.52;15.20;;;5.80;99.90;;;;;;5068950;28;20397;-48
2020/12/08 08:13:58;;;;;;;28.58;15.45;;;5.90;99.90;;;;;;5071999;28;20453;-48
2020/12/08 08:16:25;;;;;;;26.48;13.77;;;5.90;99.90;;;;;;5071820;28;20369;-47
2020/12/08 08:18:51;;;;;;;27.02;14.38;;;5.90;99.90;;;;;;5071330;28;20394;-47
2020/12/08 08:21:20;;;;;;;23.83;12.70;;;5.90;99.90;;;;;;5071998;28;20378;-47
2020/12/08 08:23:46;;;;;;;23.52;12.93;;;5.90;99.90;;;;;;5070283;28;20410;-47
2020/12/08 08:26:14;;;;;;;25.25;13.25;;;5.90;99.90;;;;;;5071329;28;20869;-48
2020/12/08 08:28:41;;;;;;;23.08;13.10;;;5.90;99.90;;;;;;5071533;28;20735;-49
2020/12/08 08:31:07;;;;;;;22.95;12.55;;;5.90;99.90;;;;;;5071396;28;20386;-54
2020/12/08 08:33:33;;;;;;;21.08;11.70;;;5.90;99.90;;;;;;5069852;28;20410;-54
2020/12/08 08:35:59;;;;;;;20.55;12.05;;;5.90;99.90;;;;;;5069204;28;20382;-53
2020/12/08 08:38:28;;;;;;;22.33;12.20;;;5.80;99.90;;;;;;5062713;28;20386;-52
2020/12/08 08:40:55;;;;;;;19.95;11.68;;;5.90;99.90;;;;;;5060434;28;20389;-51
2020/12/08 08:43:21;;;;;;;21.27;11.48;;;5.80;99.90;;;;;;5071301;28;20401;-54
2020/12/08 08:45:48;;;;;;;21.63;11.90;;;5.80;99.90;;;;;;5071302;28;20374;-54
2020/12/08 08:48:14;;;;;;;20.48;11.90;;;5.80;99.90;;;;;;5071102;28;20858;-53
2020/12/08 08:50:40;;;;;;;20.75;11.00;;;5.80;99.90;;;;;;5066735;28;20941;-54
2020/12/08 08:53:07;;;;;;;21.73;11.20;;;5.80;99.90;;;;;;5069723;28;20398;-55
2020/12/08 08:55:33;;;;;;;20.27;11.32;;;5.80;99.90;;;;;;5071300;28;20378;-51
2020/12/08 08:57:59;;;;;;;19.77;10.68;;;5.80;99.90;;;;;;5070816;28;20390;-51
2020/12/08 09:00:25;;;;;;;19.42;10.77;;;5.80;99.90;;;;;;5070159;28;20382;-51
2020/12/08 09:02:51;;;;;;;17.33;10.60;;;5.80;99.90;;;;;;5067553;28;20424;-51
2020/12/08 09:05:18;;;;;;;19.70;10.73;;;5.70;99.90;;;;;;5069983;28;20397;-51
2020/12/08 09:07:44;;;;;;;19.67;10.43;;;5.70;99.90;;;;;;5069995;28;20774;-52
2020/12/08 09:10:10;;;;;;;20.63;10.15;;;5.70;99.90;;;;;;5069300;28;20758;-51
2020/12/08 09:12:36;;;;;;;19.75;10.63;;;5.70;99.90;;;;;;5070687;28;20394;-54
2020/12/08 09:15:04;;;;;;;18.65;9.82;;;5.70;99.90;;;;;;5069622;28;20866;-51
2020/12/08 09:17:31;;;;;;;15.45;8.98;;;5.70;99.90;;;;;;5069899;28;20382;-52
2020/12/08 09:19:57;;;;;;;16.13;8.88;;;5.70;99.90;;;;;;5068825;28;20389;-54
2020/12/08 09:22:23;;;;;;;16.23;8.30;;;5.70;99.90;;;;;;5069732;28;20397;-51
2020/12/08 09:24:49;;;;;;;14.40;7.90;;;5.70;99.90;;;;;;5070475;28;20390;-52
2020/12/08 09:27:16;;;;;;;13.77;7.15;;;5.70;99.90;;;;;;5070315;28;20386;-53
2020/12/08 09:29:42;;;;;;;12.43;7.22;;;5.70;99.90;;;;;;5069951;28;20398;-51
2020/12/08 09:32:08;;;;;;;13.90;6.97;;;5.60;99.90;;;;;;5069864;28;20397;-53
2020/12/08 09:34:34;;;;;;;10.85;6.00;;;5.60;99.90;;;;;;5069739;28;20398;-52
2020/12/08 09:37:00;;;;;;;11.23;5.80;;;5.60;99.90;;;;;;5070272;28;20404;-51
2020/12/08 09:39:27;;;;;;;10.37;5.63;;;5.60;99.90;;;;;;5070143;28;20394;-54
2020/12/08 09:41:53;;;;;;;10.70;5.87;;;5.60;99.90;;;;;;5069513;28;20408;-51
2020/12/08 09:44:19;;;;;;;10.05;5.45;;;5.60;99.90;;;;;;5069966;28;20445;-50
2020/12/08 09:46:45;;;;;;;11.63;5.72;;;5.60;99.90;;;;;;5069512;28;20378;-50
2020/12/08 09:49:12;;;;;;;8.10;5.20;;;5.60;99.90;;;;;;5070130;28;20405;-51
2020/12/08 09:51:38;;;;;;;9.68;5.18;;;5.60;99.90;;;;;;5068888;28;20389;-50
2020/12/08 09:54:05;;;;;;;8.73;4.95;;;5.60;99.90;;;;;;5069845;28;20390;-51
2020/12/08 09:56:31;;;;;;;10.25;5.60;;;5.50;99.90;;;;;;5068911;28;20383;-50
2020/12/08 09:58:57;;;;;;;10.05;5.20;;;5.50;99.90;;;;;;5069895;28;20477;-50
2020/12/08 10:01:27;;;;;;;8.55;5.20;;;5.50;99.90;;;;;;5069149;28;20390;-51
2020/12/08 10:03:54;;;;;;;8.45;5.32;;;5.50;99.90;;;;;;5068579;28;20425;-51
2020/12/08 10:06:21;;;;;;;8.73;4.88;;;5.50;99.90;;;;;;5073002;28;20378;-53
2020/12/08 10:08:47;;;;;;;8.02;4.85;;;5.50;99.90;;;;;;5073921;28;20390;-51
2020/12/08 10:11:14;;;;;;;9.02;4.82;;;5.50;99.90;;;;;;5074019;28;20441;-54
2020/12/08 10:13:41;;;;;;;9.52;5.05;;;5.50;99.90;;;;;;5073344;28;20750;-53
2020/12/08 10:16:07;;;;;;;7.90;4.65;;;5.40;99.90;;;;;;5073277;28;20390;-50
2020/12/08 10:18:33;;;;;;;8.38;4.70;;;5.40;99.90;;;;;;5072615;28;20412;-51
2020/12/08 10:21:00;;;;;;;8.40;5.03;;;5.30;99.90;;;;;;5072308;28;20388;-54
2020/12/08 10:30:11;;;;;;;9.20;5.77;;;5.30;99.90;;;;;;5080844;28;20376;-52
2020/12/08 10:32:40;;;;;;;8.50;5.40;;;5.20;99.90;;;;;;5073292;28;20761;-52
2020/12/08 10:35:06;;;;;;;8.15;5.00;;;5.30;99.90;;;;;;5072312;28;20394;-52
2020/12/08 10:37:32;;;;;;;8.75;5.20;;;5.30;99.90;;;;;;5069649;28;20871;-51
2020/12/08 10:39:58;;;;;;;9.48;5.35;;;5.20;99.90;;;;;;5072102;28;20389;-50
2020/12/08 10:42:24;;;;;;;9.07;5.20;;;5.20;99.90;;;;;;5073536;28;20370;-51
2020/12/08 10:44:50;;;;;;;7.78;4.90;;;5.20;99.90;;;;;;5073217;28;20418;-51
2020/12/08 10:47:19;;;;;;;9.00;5.30;;;5.20;99.90;;;;;;5068286;28;20399;-52
2020/12/08 10:49:45;;;;;;;7.55;5.10;;;5.20;99.90;;;;;;5070494;28;20396;-51
2020/12/08 10:52:11;;;;;;;10.85;5.20;;;5.20;99.90;;;;;;5068943;28;20394;-51
2020/12/08 10:54:38;;;;;;;7.47;4.35;;;5.10;99.90;;;;;;5064219;28;20181;-51
2020/12/08 10:57:04;;;;;;;6.65;4.07;;;5.10;99.90;;;;;;5060534;28;20179;-52
2020/12/08 10:59:30;;;;;;;6.53;4.15;;;5.10;99.90;;;;;;5071214;28;20186;-51
2020/12/08 11:01:56;;;;;;;7.82;4.00;;;5.10;99.90;;;;;;5072248;28;20615;-51
2020/12/08 11:04:22;;;;;;;7.53;4.18;;;5.10;99.90;;;;;;5071933;28;20226;-51
2020/12/08 11:06:49;;;;;;;10.90;4.55;;;5.00;99.90;;;;;;5072492;28;20185;-51
2020/12/08 11:09:15;;;;;;;8.20;5.05;;;5.00;99.90;;;;;;5071197;28;20386;-52
2020/12/08 11:11:41;;;;;;;9.30;5.47;;;4.90;99.90;;;;;;5072774;28;20402;-51
2020/12/08 11:14:07;;;;;;;7.78;4.90;;;4.90;99.90;;;;;;5072785;28;20405;-51
2020/12/08 11:16:33;;;;;;;9.38;5.22;;;4.90;99.90;;;;;;5071493;28;20386;-53
2020/12/08 11:18:59;;;;;;;7.45;4.95;;;4.90;99.90;;;;;;5070271;28;20754;-53
2020/12/08 11:21:26;;;;;;;8.70;4.55;;;4.80;99.90;;;;;;5073061;28;20386;-52
2020/12/08 11:23:56;;;;;;;6.90;4.33;;;4.80;99.90;;;;;;5072560;28;20409;-52
2020/12/08 11:26:23;;;;;;;7.65;4.88;;;4.80;99.90;;;;;;5071850;28;20770;-51
2020/12/08 11:28:49;;;;;;;9.57;4.55;;;4.70;99.90;;;;;;5072074;28;20389;-54
2020/12/08 11:31:15;;;;;;;7.37;4.20;;;4.70;99.90;;;;;;5071657;28;20432;-51
2020/12/08 11:33:43;;;;;;;7.80;4.40;;;4.70;99.90;;;;;;5071369;28;20897;-53
2020/12/08 11:36:09;;;;;;;7.53;4.53;;;4.60;99.90;;;;;;5072400;28;20390;-51
2020/12/08 11:38:36;;;;;;;7.43;4.38;;;4.60;99.90;;;;;;5071331;28;20397;-52
2020/12/08 11:41:02;;;;;;;7.67;4.20;;;4.60;99.90;;;;;;5070410;28;20885;-51
2020/12/08 11:43:28;;;;;;;8.00;4.15;;;4.60;99.90;;;;;;5052250;28;20418;-60
2020/12/08 11:45:55;;;;;;;7.97;4.63;;;4.60;99.90;;;;;;5045542;28;20854;-53
2020/12/08 11:48:23;;;;;;;6.73;4.30;;;4.50;99.90;;;;;;5071509;28;20401;-51
2020/12/08 11:50:50;;;;;;;7.30;4.40;;;4.50;99.90;;;;;;5070993;28;20385;-51
2020/12/08 11:53:16;;;;;;;7.90;4.18;;;4.50;99.90;;;;;;5069630;28;20400;-51
2020/12/08 11:55:42;;;;;;;5.57;4.03;;;4.50;99.90;;;;;;5071090;28;20388;-54
2020/12/08 11:58:08;;;;;;;6.53;4.07;;;4.50;99.90;;;;;;5068661;28;20393;-50
2020/12/08 12:00:34;;;;;;;5.85;3.80;;;4.40;99.90;;;;;;5080056;28;20392;-51
2020/12/08 12:03:01;;;;;;;4.97;3.50;;;4.40;99.90;;;;;;5070712;28;20901;-50
2020/12/08 12:05:27;;;;;;;5.63;3.60;;;4.40;99.90;;;;;;5071121;28;20401;-52
2020/12/08 12:07:53;;;;;;;5.85;4.00;;;4.40;99.90;;;;;;5070854;28;20738;-51
2020/12/08 12:10:19;;;;;;;6.57;4.20;;;4.30;99.90;;;;;;5071510;28;20858;-49
2020/12/08 12:12:45;;;;;;;5.97;3.90;;;4.30;99.90;;;;;;5071687;28;20390;-49
2020/12/08 12:15:11;;;;;;;7.60;4.40;;;4.30;99.90;;;;;;5067558;28;20397;-48
2020/12/08 12:17:37;;;;;;;7.03;4.67;;;4.20;99.90;;;;;;5070811;28;20461;-49
2020/12/08 12:20:07;;;;;;;6.65;4.22;;;4.20;99.90;;;;;;5072381;28;20430;-49
2020/12/08 12:22:34;;;;;;;5.85;3.90;;;4.20;99.90;;;;;;5050418;28;20178;-50
2020/12/08 12:25:00;;;;;;;8.20;3.97;;;4.20;99.90;;;;;;5072274;28;20205;-49
2020/12/08 12:27:26;;;;;;;7.43;4.30;;;4.20;99.90;;;;;;5071502;28;20174;-50
2020/12/08 12:29:52;;;;;;;13.70;4.28;;;4.20;99.90;;;;;;5072235;28;20174;-49
2020/12/08 12:32:19;;;;;;;6.75;4.43;;;4.10;99.90;;;;;;5070559;28;20387;-48
2020/12/08 12:34:45;;;;;;;7.20;4.88;;;4.10;99.90;;;;;;5070462;28;20381;-50
2020/12/08 12:37:12;;;;;;;7.68;4.65;;;4.10;99.90;;;;;;5070617;28;20390;-48
2020/12/08 12:39:38;;;;;;;7.70;4.75;;;4.10;99.90;;;;;;5070983;28;20385;-48
2020/12/08 12:42:04;;;;;;;7.63;4.30;;;4.10;99.90;;;;;;5069602;28;20375;-49
2020/12/08 12:44:30;;;;;;;9.20;4.80;;;4.00;99.90;;;;;;5070588;28;20413;-49
2020/12/08 12:46:56;;;;;;;7.20;4.90;;;4.00;99.90;;;;;;5070922;28;20401;-49
2020/12/08 12:49:22;;;;;;;7.40;4.88;;;4.00;99.90;;;;;;5068378;28;20466;-49